sensor_id;sensor_type;location;lat;lon;timestamp;P1;durP1;ratioP1;P2;durP2;ratioP2
85077;SDS011;75413;50.144;8.456;2024-02-23T00:01:44;0.65;;;0.40;;
85077;SDS011;75413;50.144;8.456;2024-02-23T00:04:28;1.08;;;0.30;;
85077;SDS011;75413;50.144;8.456;2024-02-23T00:07:13;0.77;;;0.40;;
85077;SDS011;75413;50.144;8.456;2024-02-23T00:09:57;0.40;;;0.40;;
85077;SDS011;75413;50.144;8.456;2024-02-23T00:12:41;3.80;;;0.75;;
85077;SDS011;75413;50.144;8.456;2024-02-23T00:15:27;0.88;;;0.43;;
85077;SDS011;75413;50.144;8.456;2024-02-23T00:20:56;0.40;;;0.40;;
85077;SDS011;75413;50.144;8.456;2024-02-23T00:23:40;1.50;;;0.50;;
85077;SDS011;75413;50.144;8.456;2024-02-23T00:26:24;0.88;;;0.50;;
85077;SDS011;75413;50.144;8.456;2024-02-23T00:29:08;2.78;;;0.55;;
85077;SDS011;75413;50.144;8.456;2024-02-23T00:31:52;1.80;;;0.52;;
85077;SDS011;75413;50.144;8.456;2024-02-23T00:34:36;0.95;;;0.40;;
85077;SDS011;75413;50.144;8.456;2024-02-23T00:37:20;1.88;;;0.40;;
85077;SDS011;75413;50.144;8.456;2024-02-23T00:40:04;1.67;;;0.70;;
85077;SDS011;75413;50.144;8.456;2024-02-23T00:42:49;2.85;;;0.40;;
85077;SDS011;75413;50.144;8.456;2024-02-23T00:45:33;1.73;;;0.47;;
85077;SDS011;75413;50.144;8.456;2024-02-23T00:48:16;1.85;;;0.60;;
85077;SDS011;75413;50.144;8.456;2024-02-23T00:51:03;2.58;;;0.70;;
85077;SDS011;75413;50.144;8.456;2024-02-23T00:53:47;2.92;;;0.63;;
85077;SDS011;75413;50.144;8.456;2024-02-23T00:56:31;1.42;;;0.60;;
85077;SDS011;75413;50.144;8.456;2024-02-23T00:59:15;2.55;;;1.08;;
85077;SDS011;75413;50.144;8.456;2024-02-23T01:01:59;2.13;;;0.55;;
85077;SDS011;75413;50.144;8.456;2024-02-23T01:04:43;2.35;;;0.43;;
85077;SDS011;75413;50.144;8.456;2024-02-23T01:07:27;0.40;;;0.30;;
85077;SDS011;75413;50.144;8.456;2024-02-23T01:10:11;1.08;;;0.50;;
85077;SDS011;75413;50.144;8.456;2024-02-23T01:12:55;0.90;;;0.40;;
85077;SDS011;75413;50.144;8.456;2024-02-23T01:15:40;2.08;;;0.32;;
85077;SDS011;75413;50.144;8.456;2024-02-23T01:18:25;1.73;;;0.40;;
85077;SDS011;75413;50.144;8.456;2024-02-23T01:21:09;0.22;;;0.20;;
85077;SDS011;75413;50.144;8.456;2024-02-23T01:23:53;0.17;;;0.17;;
85077;SDS011;75413;50.144;8.456;2024-02-23T01:26:37;0.25;;;0.20;;
85077;SDS011;75413;50.144;8.456;2024-02-23T01:29:22;0.85;;;0.40;;
85077;SDS011;75413;50.144;8.456;2024-02-23T01:32:06;0.28;;;0.10;;
85077;SDS011;75413;50.144;8.456;2024-02-23T01:34:50;0.95;;;0.30;;
85077;SDS011;75413;50.144;8.456;2024-02-23T01:37:34;0.90;;;0.40;;
85077;SDS011;75413;50.144;8.456;2024-02-23T01:40:18;1.58;;;0.30;;
85077;SDS011;75413;50.144;8.456;2024-02-23T01:43:06;0.57;;;0.25;;
85077;SDS011;75413;50.144;8.456;2024-02-23T01:45:50;1.88;;;0.80;;
85077;SDS011;75413;50.144;8.456;2024-02-23T01:48:35;0.68;;;0.40;;
85077;SDS011;75413;50.144;8.456;2024-02-23T01:51:19;0.73;;;0.32;;
85077;SDS011;75413;50.144;8.456;2024-02-23T01:54:03;0.45;;;0.30;;
85077;SDS011;75413;50.144;8.456;2024-02-23T01:59:31;3.10;;;1.55;;
85077;SDS011;75413;50.144;8.456;2024-02-23T02:02:15;1.52;;;0.25;;
85077;SDS011;75413;50.144;8.456;2024-02-23T02:04:59;1.65;;;0.30;;
85077;SDS011;75413;50.144;8.456;2024-02-23T02:07:43;0.93;;;0.13;;
85077;SDS011;75413;50.144;8.456;2024-02-23T02:10:29;2.97;;;0.40;;
85077;SDS011;75413;50.144;8.456;2024-02-23T02:13:12;0.70;;;0.30;;
85077;SDS011;75413;50.144;8.456;2024-02-23T02:15:58;1.25;;;0.20;;
85077;SDS011;75413;50.144;8.456;2024-02-23T02:18:44;0.38;;;0.22;;
85077;SDS011;75413;50.144;8.456;2024-02-23T02:21:30;2.95;;;0.43;;
85077;SDS011;75413;50.144;8.456;2024-02-23T02:24:15;1.05;;;0.30;;
85077;SDS011;75413;50.144;8.456;2024-02-23T02:26:59;0.63;;;0.30;;
85077;SDS011;75413;50.144;8.456;2024-02-23T02:29:43;1.45;;;0.50;;
85077;SDS011;75413;50.144;8.456;2024-02-23T02:32:26;2.65;;;0.30;;
85077;SDS011;75413;50.144;8.456;2024-02-23T02:35:10;0.77;;;0.30;;
85077;SDS011;75413;50.144;8.456;2024-02-23T02:37:58;1.75;;;0.30;;
85077;SDS011;75413;50.144;8.456;2024-02-23T02:40:42;0.88;;;0.20;;
85077;SDS011;75413;50.144;8.456;2024-02-23T02:43:26;0.32;;;0.25;;
85077;SDS011;75413;50.144;8.456;2024-02-23T02:46:11;1.85;;;0.30;;
85077;SDS011;75413;50.144;8.456;2024-02-23T02:48:55;2.83;;;0.38;;
85077;SDS011;75413;50.144;8.456;2024-02-23T02:51:39;0.43;;;0.25;;
85077;SDS011;75413;50.144;8.456;2024-02-23T02:54:23;0.98;;;0.28;;
85077;SDS011;75413;50.144;8.456;2024-02-23T02:57:06;2.20;;;0.20;;
85077;SDS011;75413;50.144;8.456;2024-02-23T02:59:50;2.92;;;0.52;;
85077;SDS011;75413;50.144;8.456;2024-02-23T03:02:35;0.88;;;0.32;;
85077;SDS011;75413;50.144;8.456;2024-02-23T03:05:19;1.60;;;0.32;;
85077;SDS011;75413;50.144;8.456;2024-02-23T03:08:03;1.52;;;0.50;;
85077;SDS011;75413;50.144;8.456;2024-02-23T03:10:48;0.55;;;0.30;;
85077;SDS011;75413;50.144;8.456;2024-02-23T03:13:32;0.57;;;0.32;;
85077;SDS011;75413;50.144;8.456;2024-02-23T03:16:17;0.52;;;0.38;;
85077;SDS011;75413;50.144;8.456;2024-02-23T03:19:01;1.00;;;0.60;;
85077;SDS011;75413;50.144;8.456;2024-02-23T03:21:45;1.85;;;0.77;;
85077;SDS011;75413;50.144;8.456;2024-02-23T03:24:29;0.93;;;0.47;;
85077;SDS011;75413;50.144;8.456;2024-02-23T03:27:13;4.47;;;0.50;;
85077;SDS011;75413;50.144;8.456;2024-02-23T03:29:57;1.50;;;0.32;;
85077;SDS011;75413;50.144;8.456;2024-02-23T03:32:41;3.60;;;0.43;;
85077;SDS011;75413;50.144;8.456;2024-02-23T03:35:26;2.47;;;0.50;;
85077;SDS011;75413;50.144;8.456;2024-02-23T03:38:10;1.50;;;0.63;;
85077;SDS011;75413;50.144;8.456;2024-02-23T03:40:54;2.08;;;0.50;;
85077;SDS011;75413;50.144;8.456;2024-02-23T03:43:38;1.50;;;0.57;;
85077;SDS011;75413;50.144;8.456;2024-02-23T03:46:22;3.20;;;0.40;;
85077;SDS011;75413;50.144;8.456;2024-02-23T03:49:06;3.53;;;0.90;;
85077;SDS011;75413;50.144;8.456;2024-02-23T03:51:49;2.20;;;0.52;;
85077;SDS011;75413;50.144;8.456;2024-02-23T03:54:33;5.32;;;0.60;;
85077;SDS011;75413;50.144;8.456;2024-02-23T03:57:17;0.85;;;0.38;;
85077;SDS011;75413;50.144;8.456;2024-02-23T04:00:02;3.83;;;0.50;;
85077;SDS011;75413;50.144;8.456;2024-02-23T04:02:55;4.20;;;0.75;;
85077;SDS011;75413;50.144;8.456;2024-02-23T04:05:39;2.80;;;0.45;;
85077;SDS011;75413;50.144;8.456;2024-02-23T04:08:23;3.38;;;0.40;;
85077;SDS011;75413;50.144;8.456;2024-02-23T04:11:07;1.67;;;0.50;;
85077;SDS011;75413;50.144;8.456;2024-02-23T04:13:51;1.52;;;0.40;;
85077;SDS011;75413;50.144;8.456;2024-02-23T04:16:35;1.85;;;0.40;;
85077;SDS011;75413;50.144;8.456;2024-02-23T04:19:19;1.23;;;0.95;;
85077;SDS011;75413;50.144;8.456;2024-02-23T04:22:03;3.30;;;0.63;;
85077;SDS011;75413;50.144;8.456;2024-02-23T04:24:50;0.85;;;0.35;;
85077;SDS011;75413;50.144;8.456;2024-02-23T04:27:34;1.27;;;0.55;;
85077;SDS011;75413;50.144;8.456;2024-02-23T04:30:18;2.08;;;0.80;;
85077;SDS011;75413;50.144;8.456;2024-02-23T04:33:02;3.53;;;0.55;;
85077;SDS011;75413;50.144;8.456;2024-02-23T04:35:46;0.63;;;0.35;;
85077;SDS011;75413;50.144;8.456;2024-02-23T04:38:30;2.65;;;0.70;;
85077;SDS011;75413;50.144;8.456;2024-02-23T04:41:14;3.05;;;0.90;;
85077;SDS011;75413;50.144;8.456;2024-02-23T04:43:58;2.53;;;0.80;;
85077;SDS011;75413;50.144;8.456;2024-02-23T04:46:43;2.45;;;0.40;;
85077;SDS011;75413;50.144;8.456;2024-02-23T04:49:27;1.50;;;0.65;;
85077;SDS011;75413;50.144;8.456;2024-02-23T04:52:11;4.60;;;0.50;;
85077;SDS011;75413;50.144;8.456;2024-02-23T04:54:55;3.42;;;0.50;;
85077;SDS011;75413;50.144;8.456;2024-02-23T04:57:39;2.85;;;1.05;;
85077;SDS011;75413;50.144;8.456;2024-02-23T05:00:23;4.43;;;1.05;;
85077;SDS011;75413;50.144;8.456;2024-02-23T05:03:12;4.72;;;0.75;;
85077;SDS011;75413;50.144;8.456;2024-02-23T05:05:56;2.90;;;0.50;;
85077;SDS011;75413;50.144;8.456;2024-02-23T05:08:40;1.70;;;0.40;;
85077;SDS011;75413;50.144;8.456;2024-02-23T05:11:24;3.75;;;1.02;;
85077;SDS011;75413;50.144;8.456;2024-02-23T05:14:08;3.75;;;1.15;;
85077;SDS011;75413;50.144;8.456;2024-02-23T05:16:52;5.50;;;1.88;;
85077;SDS011;75413;50.144;8.456;2024-02-23T05:19:36;2.83;;;0.70;;
85077;SDS011;75413;50.144;8.456;2024-02-23T05:22:20;1.42;;;0.65;;
85077;SDS011;75413;50.144;8.456;2024-02-23T05:25:04;1.30;;;0.80;;
85077;SDS011;75413;50.144;8.456;2024-02-23T05:27:48;1.65;;;0.70;;
85077;SDS011;75413;50.144;8.456;2024-02-23T05:30:32;3.08;;;0.98;;
85077;SDS011;75413;50.144;8.456;2024-02-23T05:33:16;1.50;;;0.82;;
85077;SDS011;75413;50.144;8.456;2024-02-23T05:36:00;1.92;;;0.88;;
85077;SDS011;75413;50.144;8.456;2024-02-23T05:38:44;1.60;;;0.90;;
85077;SDS011;75413;50.144;8.456;2024-02-23T05:41:29;1.95;;;1.02;;
85077;SDS011;75413;50.144;8.456;2024-02-23T05:46:57;3.22;;;1.00;;
85077;SDS011;75413;50.144;8.456;2024-02-23T05:49:41;3.83;;;1.10;;
85077;SDS011;75413;50.144;8.456;2024-02-23T05:52:25;3.72;;;1.25;;
85077;SDS011;75413;50.144;8.456;2024-02-23T05:55:09;1.50;;;1.25;;
85077;SDS011;75413;50.144;8.456;2024-02-23T05:57:53;2.22;;;1.00;;
85077;SDS011;75413;50.144;8.456;2024-02-23T06:03:21;4.05;;;1.35;;
85077;SDS011;75413;50.144;8.456;2024-02-23T06:06:08;3.70;;;1.20;;
85077;SDS011;75413;50.144;8.456;2024-02-23T06:08:51;5.90;;;1.58;;
85077;SDS011;75413;50.144;8.456;2024-02-23T06:11:35;2.85;;;1.20;;
85077;SDS011;75413;50.144;8.456;2024-02-23T06:14:19;2.47;;;1.20;;
85077;SDS011;75413;50.144;8.456;2024-02-23T06:17:03;3.05;;;1.13;;
85077;SDS011;75413;50.144;8.456;2024-02-23T06:19:47;2.85;;;1.00;;
85077;SDS011;75413;50.144;8.456;2024-02-23T06:22:31;3.03;;;1.02;;
85077;SDS011;75413;50.144;8.456;2024-02-23T06:25:16;3.28;;;1.15;;
85077;SDS011;75413;50.144;8.456;2024-02-23T06:28:00;6.95;;;1.52;;
85077;SDS011;75413;50.144;8.456;2024-02-23T06:30:44;2.33;;;1.17;;
85077;SDS011;75413;50.144;8.456;2024-02-23T06:33:28;4.32;;;1.15;;
85077;SDS011;75413;50.144;8.456;2024-02-23T06:36:13;1.52;;;0.77;;
85077;SDS011;75413;50.144;8.456;2024-02-23T06:38:57;5.32;;;1.02;;
85077;SDS011;75413;50.144;8.456;2024-02-23T06:41:41;1.25;;;1.08;;
85077;SDS011;75413;50.144;8.456;2024-02-23T06:44:24;3.20;;;1.10;;
85077;SDS011;75413;50.144;8.456;2024-02-23T06:47:08;6.10;;;1.70;;
85077;SDS011;75413;50.144;8.456;2024-02-23T06:49:52;3.90;;;1.20;;
85077;SDS011;75413;50.144;8.456;2024-02-23T06:52:36;2.63;;;1.15;;
85077;SDS011;75413;50.144;8.456;2024-02-23T06:55:21;4.22;;;1.20;;
85077;SDS011;75413;50.144;8.456;2024-02-23T06:58:04;5.32;;;1.38;;
85077;SDS011;75413;50.144;8.456;2024-02-23T07:00:50;5.88;;;1.75;;
85077;SDS011;75413;50.144;8.456;2024-02-23T07:03:34;3.75;;;1.08;;
85077;SDS011;75413;50.144;8.456;2024-02-23T07:06:19;2.83;;;1.45;;
85077;SDS011;75413;50.144;8.456;2024-02-23T07:09:03;3.42;;;1.48;;
85077;SDS011;75413;50.144;8.456;2024-02-23T07:11:47;4.00;;;1.27;;
85077;SDS011;75413;50.144;8.456;2024-02-23T07:14:31;2.90;;;1.10;;
85077;SDS011;75413;50.144;8.456;2024-02-23T07:17:18;2.10;;;0.80;;
85077;SDS011;75413;50.144;8.456;2024-02-23T07:20:03;0.90;;;0.80;;
85077;SDS011;75413;50.144;8.456;2024-02-23T07:22:49;4.22;;;0.93;;
85077;SDS011;75413;50.144;8.456;2024-02-23T07:25:34;4.65;;;1.13;;
85077;SDS011;75413;50.144;8.456;2024-02-23T07:28:18;1.13;;;0.70;;
85077;SDS011;75413;50.144;8.456;2024-02-23T07:31:03;0.90;;;0.90;;
85077;SDS011;75413;50.144;8.456;2024-02-23T07:33:47;2.58;;;1.13;;
85077;SDS011;75413;50.144;8.456;2024-02-23T07:36:31;3.65;;;0.70;;
85077;SDS011;75413;50.144;8.456;2024-02-23T07:39:15;3.55;;;0.73;;
85077;SDS011;75413;50.144;8.456;2024-02-23T07:41:59;6.30;;;1.25;;
85077;SDS011;75413;50.144;8.456;2024-02-23T07:44:44;4.07;;;0.85;;
85077;SDS011;75413;50.144;8.456;2024-02-23T07:47:28;3.13;;;0.95;;
85077;SDS011;75413;50.144;8.456;2024-02-23T07:50:13;2.47;;;0.70;;
85077;SDS011;75413;50.144;8.456;2024-02-23T07:52:57;4.05;;;1.23;;
85077;SDS011;75413;50.144;8.456;2024-02-23T07:55:41;0.70;;;0.60;;
85077;SDS011;75413;50.144;8.456;2024-02-23T07:58:25;2.45;;;0.60;;
85077;SDS011;75413;50.144;8.456;2024-02-23T08:01:10;1.70;;;0.47;;
85077;SDS011;75413;50.144;8.456;2024-02-23T08:03:55;1.60;;;0.88;;
85077;SDS011;75413;50.144;8.456;2024-02-23T08:06:39;2.28;;;0.82;;
85077;SDS011;75413;50.144;8.456;2024-02-23T08:09:23;4.53;;;0.85;;
85077;SDS011;75413;50.144;8.456;2024-02-23T08:12:07;0.77;;;0.60;;
85077;SDS011;75413;50.144;8.456;2024-02-23T08:14:52;1.77;;;1.00;;
85077;SDS011;75413;50.144;8.456;2024-02-23T08:17:37;0.98;;;0.57;;
85077;SDS011;75413;50.144;8.456;2024-02-23T08:20:21;2.63;;;0.60;;
85077;SDS011;75413;50.144;8.456;2024-02-23T08:23:05;4.88;;;0.88;;
85077;SDS011;75413;50.144;8.456;2024-02-23T08:25:49;2.47;;;0.82;;
85077;SDS011;75413;50.144;8.456;2024-02-23T08:28:34;1.10;;;0.70;;
85077;SDS011;75413;50.144;8.456;2024-02-23T08:31:18;2.78;;;0.77;;
85077;SDS011;75413;50.144;8.456;2024-02-23T08:34:02;6.28;;;1.33;;
85077;SDS011;75413;50.144;8.456;2024-02-23T08:36:46;6.55;;;0.70;;
85077;SDS011;75413;50.144;8.456;2024-02-23T08:39:30;3.22;;;0.52;;
85077;SDS011;75413;50.144;8.456;2024-02-23T08:42:14;6.18;;;1.10;;
85077;SDS011;75413;50.144;8.456;2024-02-23T08:44:58;4.03;;;0.98;;
85077;SDS011;75413;50.144;8.456;2024-02-23T08:47:42;1.55;;;0.85;;
85077;SDS011;75413;50.144;8.456;2024-02-23T08:50:26;3.33;;;0.90;;
85077;SDS011;75413;50.144;8.456;2024-02-23T08:53:10;5.05;;;1.05;;
85077;SDS011;75413;50.144;8.456;2024-02-23T08:55:54;5.30;;;0.85;;
85077;SDS011;75413;50.144;8.456;2024-02-23T08:58:38;7.53;;;1.33;;
85077;SDS011;75413;50.144;8.456;2024-02-23T09:01:22;5.30;;;1.13;;
85077;SDS011;75413;50.144;8.456;2024-02-23T09:04:06;2.53;;;0.80;;
85077;SDS011;75413;50.144;8.456;2024-02-23T09:06:50;4.18;;;0.82;;
85077;SDS011;75413;50.144;8.456;2024-02-23T09:09:35;5.47;;;1.27;;
85077;SDS011;75413;50.144;8.456;2024-02-23T09:12:19;4.55;;;1.10;;
85077;SDS011;75413;50.144;8.456;2024-02-23T09:15:03;6.32;;;1.10;;
85077;SDS011;75413;50.144;8.456;2024-02-23T09:17:48;3.17;;;1.00;;
85077;SDS011;75413;50.144;8.456;2024-02-23T09:20:32;2.25;;;0.80;;
85077;SDS011;75413;50.144;8.456;2024-02-23T09:23:16;5.63;;;0.82;;
85077;SDS011;75413;50.144;8.456;2024-02-23T09:26:00;2.53;;;0.80;;
85077;SDS011;75413;50.144;8.456;2024-02-23T09:28:44;2.97;;;0.70;;
85077;SDS011;75413;50.144;8.456;2024-02-23T09:31:28;4.03;;;0.80;;
85077;SDS011;75413;50.144;8.456;2024-02-23T09:34:13;4.18;;;1.00;;
85077;SDS011;75413;50.144;8.456;2024-02-23T09:36:57;6.20;;;1.35;;
85077;SDS011;75413;50.144;8.456;2024-02-23T09:39:41;4.32;;;0.85;;
85077;SDS011;75413;50.144;8.456;2024-02-23T09:42:25;7.47;;;1.17;;
85077;SDS011;75413;50.144;8.456;2024-02-23T09:45:12;3.22;;;0.80;;
85077;SDS011;75413;50.144;8.456;2024-02-23T09:47:56;5.43;;;0.93;;
85077;SDS011;75413;50.144;8.456;2024-02-23T09:50:41;3.55;;;1.40;;
85077;SDS011;75413;50.144;8.456;2024-02-23T09:53:26;2.40;;;0.70;;
85077;SDS011;75413;50.144;8.456;2024-02-23T09:56:10;2.95;;;0.80;;
85077;SDS011;75413;50.144;8.456;2024-02-23T09:58:55;5.35;;;1.10;;
85077;SDS011;75413;50.144;8.456;2024-02-23T10:01:40;3.80;;;0.95;;
85077;SDS011;75413;50.144;8.456;2024-02-23T10:04:25;11.13;;;1.13;;
85077;SDS011;75413;50.144;8.456;2024-02-23T10:07:16;3.65;;;0.73;;
85077;SDS011;75413;50.144;8.456;2024-02-23T10:09:59;2.45;;;0.90;;
85077;SDS011;75413;50.144;8.456;2024-02-23T10:12:44;1.77;;;0.50;;
85077;SDS011;75413;50.144;8.456;2024-02-23T10:15:29;4.05;;;0.73;;
85077;SDS011;75413;50.144;8.456;2024-02-23T10:18:14;6.05;;;0.80;;
85077;SDS011;75413;50.144;8.456;2024-02-23T10:20:58;6.40;;;0.93;;
85077;SDS011;75413;50.144;8.456;2024-02-23T10:23:43;3.15;;;1.17;;
85077;SDS011;75413;50.144;8.456;2024-02-23T10:26:28;6.47;;;1.45;;
85077;SDS011;75413;50.144;8.456;2024-02-23T10:29:12;2.97;;;1.23;;
85077;SDS011;75413;50.144;8.456;2024-02-23T10:31:56;6.13;;;1.00;;
85077;SDS011;75413;50.144;8.456;2024-02-23T10:34:45;5.22;;;1.05;;
85077;SDS011;75413;50.144;8.456;2024-02-23T10:37:31;4.65;;;1.10;;
85077;SDS011;75413;50.144;8.456;2024-02-23T10:40:17;5.65;;;0.80;;
85077;SDS011;75413;50.144;8.456;2024-02-23T10:43:02;4.70;;;0.80;;
85077;SDS011;75413;50.144;8.456;2024-02-23T10:45:48;2.67;;;0.90;;
85077;SDS011;75413;50.144;8.456;2024-02-23T10:48:32;6.32;;;1.02;;
85077;SDS011;75413;50.144;8.456;2024-02-23T10:54:01;4.20;;;1.63;;
85077;SDS011;75413;50.144;8.456;2024-02-23T10:56:46;2.05;;;0.75;;
85077;SDS011;75413;50.144;8.456;2024-02-23T10:59:31;2.33;;;0.68;;
85077;SDS011;75413;50.144;8.456;2024-02-23T11:02:16;2.38;;;0.80;;
85077;SDS011;75413;50.144;8.456;2024-02-23T11:05:04;3.88;;;1.10;;
85077;SDS011;75413;50.144;8.456;2024-02-23T11:07:48;4.78;;;1.10;;
85077;SDS011;75413;50.144;8.456;2024-02-23T11:10:41;4.53;;;0.60;;
85077;SDS011;75413;50.144;8.456;2024-02-23T11:13:35;2.95;;;0.82;;
85077;SDS011;75413;50.144;8.456;2024-02-23T11:16:23;3.50;;;0.88;;
85077;SDS011;75413;50.144;8.456;2024-02-23T11:19:09;6.20;;;0.80;;
85077;SDS011;75413;50.144;8.456;2024-02-23T11:21:54;2.75;;;0.80;;
85077;SDS011;75413;50.144;8.456;2024-02-23T11:24:42;5.47;;;0.82;;
85077;SDS011;75413;50.144;8.456;2024-02-23T11:27:34;8.27;;;1.05;;
85077;SDS011;75413;50.144;8.456;2024-02-23T11:30:18;6.20;;;0.88;;
85077;SDS011;75413;50.144;8.456;2024-02-23T11:33:02;4.55;;;0.82;;
85077;SDS011;75413;50.144;8.456;2024-02-23T11:35:46;2.03;;;0.90;;
85077;SDS011;75413;50.144;8.456;2024-02-23T11:38:32;1.95;;;1.30;;
85077;SDS011;75413;50.144;8.456;2024-02-23T11:41:17;1.98;;;0.70;;
85077;SDS011;75413;50.144;8.456;2024-02-23T11:44:02;1.95;;;0.75;;
85077;SDS011;75413;50.144;8.456;2024-02-23T11:46:47;4.40;;;0.77;;
85077;SDS011;75413;50.144;8.456;2024-02-23T11:49:31;2.35;;;0.77;;
85077;SDS011;75413;50.144;8.456;2024-02-23T11:52:15;4.05;;;0.82;;
85077;SDS011;75413;50.144;8.456;2024-02-23T11:55:00;1.65;;;0.40;;
85077;SDS011;75413;50.144;8.456;2024-02-23T11:57:44;3.58;;;0.85;;
85077;SDS011;75413;50.144;8.456;2024-02-23T12:00:28;2.47;;;0.73;;
85077;SDS011;75413;50.144;8.456;2024-02-23T12:03:13;2.47;;;0.95;;
85077;SDS011;75413;50.144;8.456;2024-02-23T12:05:58;3.13;;;0.68;;
85077;SDS011;75413;50.144;8.456;2024-02-23T12:08:43;0.75;;;0.55;;
85077;SDS011;75413;50.144;8.456;2024-02-23T12:11:28;1.05;;;0.70;;
85077;SDS011;75413;50.144;8.456;2024-02-23T12:14:13;2.58;;;0.60;;
85077;SDS011;75413;50.144;8.456;2024-02-23T12:16:57;2.97;;;0.40;;
85077;SDS011;75413;50.144;8.456;2024-02-23T12:19:41;3.70;;;0.68;;
85077;SDS011;75413;50.144;8.456;2024-02-23T12:22:25;3.35;;;0.70;;
85077;SDS011;75413;50.144;8.456;2024-02-23T12:25:09;2.05;;;0.77;;
85077;SDS011;75413;50.144;8.456;2024-02-23T12:27:56;3.03;;;0.80;;
85077;SDS011;75413;50.144;8.456;2024-02-23T12:30:43;3.50;;;0.80;;
85077;SDS011;75413;50.144;8.456;2024-02-23T12:33:34;5.00;;;0.88;;
85077;SDS011;75413;50.144;8.456;2024-02-23T12:36:19;2.70;;;0.95;;
85077;SDS011;75413;50.144;8.456;2024-02-23T12:39:03;2.88;;;0.60;;
85077;SDS011;75413;50.144;8.456;2024-02-23T12:41:47;7.38;;;0.80;;
85077;SDS011;75413;50.144;8.456;2024-02-23T12:44:31;1.58;;;0.77;;
85077;SDS011;75413;50.144;8.456;2024-02-23T12:47:15;2.05;;;0.70;;
85077;SDS011;75413;50.144;8.456;2024-02-23T12:49:59;1.98;;;0.60;;
85077;SDS011;75413;50.144;8.456;2024-02-23T12:52:43;3.80;;;0.60;;
85077;SDS011;75413;50.144;8.456;2024-02-23T12:55:27;1.38;;;0.98;;
85077;SDS011;75413;50.144;8.456;2024-02-23T12:58:11;6.13;;;0.90;;
85077;SDS011;75413;50.144;8.456;2024-02-23T13:03:39;1.73;;;0.65;;
85077;SDS011;75413;50.144;8.456;2024-02-23T13:06:26;2.38;;;0.50;;
85077;SDS011;75413;50.144;8.456;2024-02-23T13:09:11;3.92;;;0.65;;
85077;SDS011;75413;50.144;8.456;2024-02-23T13:11:56;3.38;;;0.82;;
85077;SDS011;75413;50.144;8.456;2024-02-23T13:17:24;3.00;;;1.13;;
85077;SDS011;75413;50.144;8.456;2024-02-23T13:20:09;1.65;;;0.57;;
85077;SDS011;75413;50.144;8.456;2024-02-23T13:22:56;1.65;;;0.52;;
85077;SDS011;75413;50.144;8.456;2024-02-23T13:25:40;2.25;;;0.50;;
85077;SDS011;75413;50.144;8.456;2024-02-23T13:28:23;0.47;;;0.38;;
85077;SDS011;75413;50.144;8.456;2024-02-23T13:31:07;2.05;;;0.65;;
85077;SDS011;75413;50.144;8.456;2024-02-23T13:33:51;6.05;;;0.88;;
85077;SDS011;75413;50.144;8.456;2024-02-23T13:36:35;2.72;;;0.68;;
85077;SDS011;75413;50.144;8.456;2024-02-23T13:39:19;1.33;;;0.88;;
85077;SDS011;75413;50.144;8.456;2024-02-23T13:42:03;1.27;;;0.63;;
85077;SDS011;75413;50.144;8.456;2024-02-23T13:44:48;1.65;;;0.50;;
85077;SDS011;75413;50.144;8.456;2024-02-23T13:47:33;0.93;;;0.60;;
85077;SDS011;75413;50.144;8.456;2024-02-23T13:50:17;3.45;;;0.80;;
85077;SDS011;75413;50.144;8.456;2024-02-23T13:53:01;3.28;;;0.80;;
85077;SDS011;75413;50.144;8.456;2024-02-23T13:55:45;2.22;;;0.60;;
85077;SDS011;75413;50.144;8.456;2024-02-23T13:58:29;3.45;;;1.05;;
85077;SDS011;75413;50.144;8.456;2024-02-23T14:01:13;2.08;;;0.98;;
85077;SDS011;75413;50.144;8.456;2024-02-23T14:06:40;2.33;;;0.63;;
85077;SDS011;75413;50.144;8.456;2024-02-23T14:09:24;1.67;;;0.45;;
85077;SDS011;75413;50.144;8.456;2024-02-23T14:12:08;4.35;;;0.70;;
85077;SDS011;75413;50.144;8.456;2024-02-23T14:17:36;1.83;;;0.80;;
85077;SDS011;75413;50.144;8.456;2024-02-23T14:23:04;1.88;;;0.85;;
85077;SDS011;75413;50.144;8.456;2024-02-23T14:25:48;1.83;;;0.80;;
85077;SDS011;75413;50.144;8.456;2024-02-23T14:28:32;1.40;;;0.65;;
85077;SDS011;75413;50.144;8.456;2024-02-23T14:34:00;2.72;;;0.80;;
85077;SDS011;75413;50.144;8.456;2024-02-23T14:39:28;1.00;;;0.38;;
85077;SDS011;75413;50.144;8.456;2024-02-23T14:42:12;4.10;;;0.65;;
85077;SDS011;75413;50.144;8.456;2024-02-23T14:44:56;2.80;;;1.25;;
85077;SDS011;75413;50.144;8.456;2024-02-23T14:47:40;3.63;;;0.60;;
85077;SDS011;75413;50.144;8.456;2024-02-23T14:53:07;0.85;;;0.65;;
85077;SDS011;75413;50.144;8.456;2024-02-23T14:55:52;3.28;;;0.60;;
85077;SDS011;75413;50.144;8.456;2024-02-23T14:58:36;2.80;;;0.60;;
85077;SDS011;75413;50.144;8.456;2024-02-23T15:01:20;1.10;;;0.40;;
85077;SDS011;75413;50.144;8.456;2024-02-23T15:06:49;2.05;;;0.50;;
85077;SDS011;75413;50.144;8.456;2024-02-23T15:09:33;3.15;;;0.63;;
85077;SDS011;75413;50.144;8.456;2024-02-23T15:12:17;3.55;;;0.50;;
85077;SDS011;75413;50.144;8.456;2024-02-23T15:17:45;4.13;;;0.80;;
85077;SDS011;75413;50.144;8.456;2024-02-23T15:20:31;3.20;;;1.00;;
85077;SDS011;75413;50.144;8.456;2024-02-23T15:23:15;4.47;;;0.52;;
85077;SDS011;75413;50.144;8.456;2024-02-23T15:28:43;1.33;;;0.68;;
85077;SDS011;75413;50.144;8.456;2024-02-23T15:31:27;6.72;;;1.02;;
85077;SDS011;75413;50.144;8.456;2024-02-23T15:34:11;4.13;;;0.73;;
85077;SDS011;75413;50.144;8.456;2024-02-23T15:36:55;4.63;;;1.20;;
85077;SDS011;75413;50.144;8.456;2024-02-23T15:39:39;2.78;;;0.85;;
85077;SDS011;75413;50.144;8.456;2024-02-23T15:42:23;1.73;;;0.73;;
85077;SDS011;75413;50.144;8.456;2024-02-23T15:45:06;3.13;;;0.63;;
85077;SDS011;75413;50.144;8.456;2024-02-23T15:47:51;1.35;;;0.73;;
85077;SDS011;75413;50.144;8.456;2024-02-23T15:53:19;1.67;;;0.60;;
85077;SDS011;75413;50.144;8.456;2024-02-23T15:56:03;4.28;;;1.92;;
85077;SDS011;75413;50.144;8.456;2024-02-23T15:58:47;5.72;;;1.40;;
85077;SDS011;75413;50.144;8.456;2024-02-23T16:01:31;3.97;;;1.10;;
85077;SDS011;75413;50.144;8.456;2024-02-23T16:04:15;3.55;;;1.05;;
85077;SDS011;75413;50.144;8.456;2024-02-23T16:06:59;1.85;;;0.80;;
85077;SDS011;75413;50.144;8.456;2024-02-23T16:12:27;2.90;;;0.73;;
85077;SDS011;75413;50.144;8.456;2024-02-23T16:15:11;4.03;;;1.00;;
85077;SDS011;75413;50.144;8.456;2024-02-23T16:17:55;3.10;;;1.08;;
85077;SDS011;75413;50.144;8.456;2024-02-23T16:20:40;2.40;;;0.80;;
85077;SDS011;75413;50.144;8.456;2024-02-23T16:23:24;2.38;;;0.55;;
85077;SDS011;75413;50.144;8.456;2024-02-23T16:26:09;1.58;;;0.80;;
85077;SDS011;75413;50.144;8.456;2024-02-23T16:28:52;6.40;;;1.02;;
85077;SDS011;75413;50.144;8.456;2024-02-23T16:31:37;1.95;;;0.82;;
85077;SDS011;75413;50.144;8.456;2024-02-23T16:34:21;2.05;;;0.65;;
85077;SDS011;75413;50.144;8.456;2024-02-23T16:37:05;4.90;;;1.30;;
85077;SDS011;75413;50.144;8.456;2024-02-23T16:39:49;4.32;;;1.30;;
85077;SDS011;75413;50.144;8.456;2024-02-23T16:42:33;2.75;;;0.73;;
85077;SDS011;75413;50.144;8.456;2024-02-23T16:45:17;5.22;;;1.00;;
85077;SDS011;75413;50.144;8.456;2024-02-23T16:48:01;5.30;;;1.30;;
85077;SDS011;75413;50.144;8.456;2024-02-23T16:50:49;6.63;;;2.15;;
85077;SDS011;75413;50.144;8.456;2024-02-23T16:53:33;5.43;;;1.13;;
85077;SDS011;75413;50.144;8.456;2024-02-23T16:56:17;2.67;;;1.10;;
85077;SDS011;75413;50.144;8.456;2024-02-23T16:59:01;4.53;;;1.40;;
85077;SDS011;75413;50.144;8.456;2024-02-23T17:01:45;3.88;;;1.10;;
85077;SDS011;75413;50.144;8.456;2024-02-23T17:04:29;3.30;;;1.45;;
85077;SDS011;75413;50.144;8.456;2024-02-23T17:07:13;2.88;;;1.05;;
85077;SDS011;75413;50.144;8.456;2024-02-23T17:09:57;1.92;;;1.20;;
85077;SDS011;75413;50.144;8.456;2024-02-23T17:12:41;3.58;;;1.10;;
85077;SDS011;75413;50.144;8.456;2024-02-23T17:15:31;3.75;;;1.10;;
85077;SDS011;75413;50.144;8.456;2024-02-23T17:18:15;2.90;;;1.15;;
85077;SDS011;75413;50.144;8.456;2024-02-23T17:20:59;2.55;;;0.93;;